Time;durP1;ratioP1;P1;durP2;ratioP2;P2;SDS_P1;SDS_P2;PMS_P1;PMS_P2;Temp;Humidity;BMP_temperature;BMP_pressure;BME280_temperature;BME280_humidity;BME280_pressure;Samples;Min_cycle;Max_cycle;Signal;HPM_P1;HPM_P2
2022/06/07 00:01:00;;;;;;;;;8.33;7.00;;;;;18.37;65.64;100823.31;5044975;28;45481;-71
2022/06/07 00:03:26;;;;;;;;;6.00;5.67;;;;;18.25;66.03;100794.22;5047124;28;45427;-71
2022/06/07 00:05:52;;;;;;;;;5.67;4.67;;;;;18.37;65.75;100806.59;5046144;28;45680;-71
2022/06/07 00:08:18;;;;;;;;;5.00;5.00;;;;;18.44;65.75;100792.47;5045468;28;46196;-71
2022/06/07 00:10:47;;;;;;;;;6.67;6.00;;;;;18.43;65.71;100785.44;5047357;28;45473;-72
2022/06/07 00:13:13;;;;;;;;;4.00;4.00;;;;;18.31;66.00;100766.91;5045963;28;45353;-72
2022/06/07 00:15:39;;;;;;;;;5.33;5.00;;;;;18.45;65.73;100791.59;5045370;28;45392;-72
2022/06/07 00:21:29;;;;;;;;;5.67;4.67;;;;;18.53;65.58;100797.78;5045014;28;45447;-71
2022/06/07 00:23:55;;;;;;;;;5.33;5.00;;;;;18.51;65.56;100790.75;5045718;28;45515;-72
2022/06/07 00:26:21;;;;;;;;;4.00;4.00;;;;;18.52;65.44;100781.91;5046907;28;45519;-72
2022/06/07 00:28:47;;;;;;;;;4.33;4.00;;;;;18.50;65.57;100787.19;5045099;28;46103;-72
2022/06/07 00:31:13;;;;;;;;;3.67;3.67;;;;;18.48;65.85;100781.91;5045870;28;45429;-71
2022/06/07 00:33:39;;;;;;;;;6.00;5.67;;;;;18.50;65.69;100784.53;5046507;28;45573;-72
2022/06/07 00:36:05;;;;;;;;;4.00;4.00;;;;;18.48;65.78;100784.56;5047038;28;45654;-73
2022/06/07 00:38:30;;;;;;;;;4.00;4.00;;;;;18.51;66.00;100782.81;5046490;28;45315;-72
2022/06/07 00:40:56;;;;;;;;;4.00;4.00;;;;;18.49;65.80;100777.50;5047581;28;45420;-72
2022/06/07 00:43:25;;;;;;;;;6.00;6.00;;;;;18.37;65.99;100764.25;5045750;28;45490;-72
2022/06/07 00:45:51;;;;;;;;;7.33;7.00;;;;;18.43;66.46;100783.66;5038759;28;45319;-72
2022/06/07 00:48:17;;;;;;;;;5.33;5.00;;;;;18.36;66.21;100781.88;5037547;28;46130;-72
2022/06/07 00:51:04;;;;;;;;;6.33;6.33;;;;;18.31;66.76;100778.34;5036969;28;45311;-72
2022/06/07 00:53:33;;;;;;;;;7.67;7.00;;;;;18.31;67.08;100778.34;5037201;28;45574;-71
2022/06/07 00:55:59;;;;;;;;;7.33;7.00;;;;;18.31;67.23;100783.66;5037338;28;45388;-72
2022/06/07 00:58:28;;;;;;;;;7.00;6.00;;;;;18.29;66.82;100777.47;5036876;28;45518;-72
2022/06/07 01:00:55;;;;;;;;;8.00;7.00;;;;;18.22;67.10;100762.47;5036882;28;45272;-72
2022/06/07 01:03:21;;;;;;;;;8.67;8.33;;;;;18.26;67.00;100777.44;5036868;28;45360;-71
2022/06/07 01:05:47;;;;;;;;;13.50;12.50;;;;;18.27;67.23;100766.88;5037277;28;45459;-72
2022/06/07 01:10:57;;;;;;;;;27.50;25.75;;;;;18.26;67.40;100751.00;5036546;28;45370;-71
2022/06/07 01:13:27;;;;;;;;;22.00;18.50;;;;;18.27;67.32;100758.94;5036724;28;45480;-71
2022/06/07 01:16:00;;;;;;;;;20.75;18.50;;;;;18.29;67.55;100751.91;5037024;28;45450;-71
2022/06/07 01:18:26;;;;;;;;;21.00;18.75;;;;;18.34;67.50;100759.84;5036605;28;46037;-72
2022/06/07 01:21:15;;;;;;;;;18.75;17.50;;;;;18.38;67.64;100758.06;5036613;28;45333;-71
2022/06/07 01:23:46;;;;;;;;;20.50;18.50;;;;;18.35;67.22;100745.75;5036838;28;45314;-72
2022/06/07 01:26:12;;;;;;;;;22.00;21.75;;;;;18.44;67.45;100760.72;5036951;28;45469;-71
2022/06/07 01:28:39;;;;;;;;;27.25;23.50;;;;;18.43;67.39;100754.56;5036376;28;46284;-72
2022/06/07 01:31:05;;;;;;;;;25.00;23.25;;;;;18.40;66.18;100754.56;5038836;28;45500;-72
2022/06/07 01:33:31;;;;;;;;;23.75;21.25;;;;;18.37;66.51;100754.56;5040127;28;45573;-71
2022/06/07 01:36:04;;;;;;;;;29.50;27.25;;;;;18.36;67.30;100762.47;5040393;28;45541;-72
2022/06/07 01:38:32;;;;;;;;;23.75;22.25;;;;;18.39;67.64;100755.44;5038579;28;48172;-72
2022/06/07 01:43:41;;;;;;;;;25.50;23.75;;;;;18.37;66.70;100762.50;5040014;28;45288;-71
2022/06/07 01:46:07;;;;;;;;;22.00;20.25;;;;;18.37;67.26;100762.50;5040073;28;45311;-72
2022/06/07 01:48:33;;;;;;;;;16.75;15.50;;;;;18.38;67.09;100761.63;5039866;28;45555;-72
2022/06/07 01:51:02;;;;;;;;;24.50;22.50;;;;;18.37;67.16;100765.13;5039818;28;45503;-71
2022/06/07 01:53:28;;;;;;;;;17.00;16.50;;;;;18.43;67.23;100757.22;5039951;28;45803;-72
2022/06/07 01:56:01;;;;;;;;;11.75;10.50;;;;;18.47;67.71;100760.75;5039847;28;45569;-72
2022/06/07 01:58:26;;;;;;;;;11.00;10.75;;;;;18.46;67.53;100743.09;5039360;28;45560;-72
2022/06/07 02:00:55;;;;;;;;;12.00;11.00;;;;;18.54;67.35;100756.34;5039739;28;45477;-71
2022/06/07 02:03:20;;;;;;;;;11.67;11.00;;;;;18.56;67.35;100755.47;5039975;28;45391;-72
2022/06/07 02:05:57;;;;;;;;;11.33;10.33;;;;;18.58;67.07;100758.09;5039883;28;45293;-72
2022/06/07 02:08:23;;;;;;;;;23.50;21.75;;;;;18.56;66.96;100750.19;5039625;28;46124;-71
2022/06/07 02:10:49;;;;;;;;;28.75;27.00;;;;;18.54;66.85;100743.09;5039560;28;45559;-72
2022/06/07 02:13:15;;;;;;;;;24.00;22.50;;;;;18.55;66.80;100740.47;5039710;28;45533;-71
2022/06/07 02:15:41;;;;;;;;;22.50;20.75;;;;;18.61;67.30;100748.41;5039778;28;45366;-72
2022/06/07 02:18:07;;;;;;;;;21.50;17.75;;;;;18.60;67.46;100744.00;5039001;28;46196;-72
2022/06/07 02:20:33;;;;;;;;;22.00;21.75;;;;;18.60;67.65;100736.06;5039109;28;45580;-72
2022/06/07 02:22:58;;;;;;;;;36.25;32.00;;;;;18.59;67.53;100731.66;5039296;28;45433;-71
2022/06/07 02:25:24;;;;;;;;;37.75;33.75;;;;;18.57;67.30;100732.53;5039704;28;45402;-72
2022/06/07 02:27:50;;;;;;;;;46.25;38.25;;;;;18.51;67.25;100733.41;5038946;28;45475;-71
2022/06/07 02:30:16;;;;;;;;;31.25;29.00;;;;;18.45;67.66;100730.78;5039041;28;45647;-72
2022/06/07 02:32:42;;;;;;;;;28.75;26.50;;;;;18.48;67.76;100741.34;5039067;28;45535;-72
2022/06/07 02:35:09;;;;;;;;;33.50;27.75;;;;;18.48;67.80;100741.34;5039020;28;45324;-71
2022/06/07 02:37:37;;;;;;;;;20.25;19.00;;;;;18.51;67.88;100746.63;5038922;28;45464;-71
2022/06/07 02:40:05;;;;;;;;;12.67;10.67;;;;;18.54;68.02;100743.97;5039092;28;45561;-71
2022/06/07 02:42:31;;;;;;;;;12.67;12.33;;;;;18.53;67.96;100730.78;5038212;28;45716;-72
2022/06/07 02:44:57;;;;;;;;;18.25;16.75;;;;;18.56;67.34;100730.75;5038929;28;45386;-71
2022/06/07 02:47:23;;;;;;;;;21.50;20.75;;;;;18.56;67.00;100734.31;5039320;28;45368;-71
2022/06/07 02:49:50;;;;;;;;;16.50;16.50;;;;;18.57;67.32;100727.25;5038791;28;45462;-71
2022/06/07 02:52:15;;;;;;;;;15.50;14.25;;;;;18.46;67.33;100714.00;5038974;28;45400;-71
2022/06/07 02:54:41;;;;;;;;;11.00;11.00;;;;;18.43;67.41;100706.94;5039041;28;45458;-71
2022/06/07 02:57:07;;;;;;;;;9.00;8.67;;;;;18.49;67.86;100721.94;5038869;28;45444;-71
2022/06/07 02:59:32;;;;;;;;;10.33;9.33;;;;;18.61;67.91;100737.81;5038846;28;45584;-71
2022/06/07 03:01:58;;;;;;;;;13.33;12.67;;;;;18.60;67.73;100735.16;5038902;28;45493;-72
2022/06/07 03:04:24;;;;;;;;;20.50;18.50;;;;;18.50;67.85;100726.34;5038791;28;45291;-71
2022/06/07 03:06:49;;;;;;;;;21.50;19.50;;;;;18.50;68.60;100734.28;5038720;28;45434;-71
2022/06/07 03:09:15;;;;;;;;;18.75;17.75;;;;;18.46;68.35;100736.06;5038487;28;45434;-72
2022/06/07 03:11:40;;;;;;;;;16.50;13.00;;;;;18.39;67.65;100729.00;5038781;28;45299;-71
2022/06/07 03:14:06;;;;;;;;;15.00;14.33;;;;;18.35;67.40;100729.88;5038915;28;45289;-72
2022/06/07 03:16:32;;;;;;;;;15.00;15.00;;;;;18.28;68.08;100726.34;5038341;28;45345;-72
2022/06/07 03:18:58;;;;;;;;;10.00;10.00;;;;;18.34;68.24;100732.50;5038539;28;45426;-72
2022/06/07 03:21:24;;;;;;;;;13.50;11.50;;;;;18.22;68.26;100709.56;5038851;28;45501;-72
2022/06/07 03:23:49;;;;;;;;;11.00;10.67;;;;;18.37;68.37;100728.13;5038763;28;45426;-72
2022/06/07 03:26:15;;;;;;;;;10.67;9.67;;;;;18.37;68.50;100727.25;5038306;28;45334;-72
2022/06/07 03:28:41;;;;;;;;;8.33;8.00;;;;;18.25;68.65;100696.38;5038351;28;45464;-72
2022/06/07 03:31:12;;;;;;;;;11.00;10.33;;;;;18.36;68.75;100713.09;5038553;28;45564;-71
2022/06/07 03:33:38;;;;;;;;;11.25;11.00;;;;;18.37;69.00;100724.59;5038516;28;45301;-71
2022/06/07 03:36:07;;;;;;;;;11.33;10.33;;;;;18.24;69.41;100699.88;5038088;28;45529;-71
2022/06/07 03:38:33;;;;;;;;;12.33;8.67;;;;;18.25;69.46;100696.38;5038277;28;45228;-72
2022/06/07 03:40:59;;;;;;;;;8.67;8.67;;;;;18.44;69.11;100711.38;5038526;28;45498;-72
2022/06/07 03:43:24;;;;;;;;;8.00;8.00;;;;;18.48;68.48;100715.78;5038473;28;45422;-72
2022/06/07 03:45:50;;;;;;;;;10.00;8.33;;;;;18.51;68.19;100708.72;5037757;28;45458;-72
2022/06/07 03:48:15;;;;;;;;;7.00;6.33;;;;;18.47;68.06;100706.06;5037879;28;45453;-73
2022/06/07 03:50:41;;;;;;;;;12.00;7.67;;;;;18.60;68.16;100714.91;5037998;28;45458;-71
2022/06/07 03:53:06;;;;;;;;;9.33;9.33;;;;;18.59;67.89;100701.66;5038181;28;45413;-71
2022/06/07 03:55:32;;;;;;;;;7.00;7.00;;;;;18.61;67.87;100707.84;5037868;28;46011;-73
2022/06/07 03:57:58;;;;;;;;;5.67;5.33;;;;;18.56;67.58;100706.94;5038118;28;45478;-72
2022/06/07 04:00:24;;;;;;;;;11.00;7.67;;;;;18.63;68.44;100719.31;5037986;28;45355;-71
2022/06/07 04:02:49;;;;;;;;;7.00;6.67;;;;;18.64;68.82;100714.03;5038093;28;45359;-71
2022/06/07 04:05:15;;;;;;;;;7.00;6.00;;;;;18.66;68.89;100714.00;5037555;28;45422;-71
2022/06/07 04:10:24;;;;;;;;;11.67;11.33;;;;;18.70;68.62;100718.41;5037823;28;45407;-72
2022/06/07 04:12:50;;;;;;;;;10.00;10.00;;;;;18.58;68.78;100686.66;5037663;28;45339;-71
2022/06/07 04:15:16;;;;;;;;;10.67;10.00;;;;;18.68;69.08;100704.28;5036984;28;46015;-72
2022/06/07 04:17:41;;;;;;;;;11.00;9.67;;;;;18.68;69.13;100709.56;5037557;28;45502;-71
2022/06/07 04:20:08;;;;;;;;;12.33;10.00;;;;;18.68;68.71;100712.22;5037640;28;45476;-71
2022/06/07 04:22:33;;;;;;;;;11.00;10.67;;;;;18.67;68.78;100710.47;5037826;28;45420;-71
2022/06/07 04:24:59;;;;;;;;;11.00;11.00;;;;;18.64;69.05;100721.06;5037494;28;45481;-72
2022/06/07 04:27:24;;;;;;;;;10.00;10.00;;;;;18.64;69.03;100721.06;5037507;28;45286;-71
2022/06/07 04:29:50;;;;;;;;;10.67;9.33;;;;;18.66;69.20;100729.88;5037512;28;45251;-71
2022/06/07 04:32:16;;;;;;;;;8.67;7.00;;;;;18.68;69.65;100725.47;5037607;28;45393;-72
2022/06/07 04:34:42;;;;;;;;;6.00;6.00;;;;;18.61;69.71;100723.72;5037006;28;46123;-72
2022/06/07 04:37:08;;;;;;;;;7.67;7.00;;;;;18.67;70.02;100731.66;5037338;28;45545;-72
2022/06/07 04:39:33;;;;;;;;;8.67;7.00;;;;;18.67;70.71;100734.28;5037528;28;45390;-71
2022/06/07 04:41:59;;;;;;;;;7.00;7.00;;;;;18.67;70.63;100729.88;5037859;28;45459;-73
2022/06/07 04:44:24;;;;;;;;;5.33;5.33;;;;;18.69;70.41;100730.75;5036748;28;45386;-72
2022/06/07 04:46:50;;;;;;;;;6.00;6.00;;;;;18.69;70.41;100725.47;5035635;28;45786;-71
2022/06/07 04:49:15;;;;;;;;;10.33;8.67;;;;;18.71;71.06;100735.19;5037184;28;45545;-72
2022/06/07 04:51:41;;;;;;;;;8.33;7.67;;;;;18.56;71.06;100705.22;5037338;28;45300;-71
2022/06/07 04:54:07;;;;;;;;;8.33;6.67;;;;;18.70;71.17;100736.91;5036898;28;45438;-71
2022/06/07 04:56:34;;;;;;;;;8.33;8.33;;;;;18.69;71.26;100743.13;5037306;28;45488;-72
2022/06/07 04:59:02;;;;;;;;;9.33;8.33;;;;;18.67;72.02;100736.94;5037337;28;45562;-71
2022/06/07 05:01:31;;;;;;;;;8.33;7.00;;;;;18.65;71.51;100744.00;5037230;28;45411;-71
2022/06/07 05:03:56;;;;;;;;;6.33;5.67;;;;;18.64;71.75;100751.06;5036701;28;46279;-72
2022/06/07 05:06:31;;;;;;;;;7.00;7.00;;;;;18.64;71.75;100745.78;5035993;28;45354;-71
2022/06/07 05:08:59;;;;;;;;;7.00;6.00;;;;;18.65;71.95;100758.09;5036809;28;45473;-71
2022/06/07 05:11:26;;;;;;;;;5.33;5.33;;;;;18.65;72.16;100758.09;5037007;28;45496;-71
2022/06/07 05:13:54;;;;;;;;;5.67;5.00;;;;;18.64;73.19;100761.66;5036701;28;45421;-71
2022/06/07 05:16:20;;;;;;;;;7.33;6.00;;;;;18.66;73.49;100761.63;5036774;28;45598;-71
2022/06/07 05:18:48;;;;;;;;;5.00;4.67;;;;;18.67;73.13;100766.91;5036637;28;45468;-71
2022/06/07 05:21:13;;;;;;;;;6.67;6.00;;;;;18.67;73.06;100768.69;5036816;28;45493;-71
2022/06/07 05:23:39;;;;;;;;;5.00;4.67;;;;;18.69;72.80;100766.94;5036167;28;45419;-72
2022/06/07 05:26:10;;;;;;;;;9.00;8.33;;;;;18.70;72.81;100768.69;5036718;28;45262;-71
2022/06/07 05:28:37;;;;;;;;;6.67;5.33;;;;;18.74;72.93;100773.13;5037050;28;45296;-72
2022/06/07 05:31:03;;;;;;;;;10.00;6.67;;;;;18.75;73.52;100780.16;5037276;28;45351;-72
2022/06/07 05:33:29;;;;;;;;;5.00;5.00;;;;;18.77;73.32;100778.41;5036442;28;46264;-71
2022/06/07 05:35:56;;;;;;;;;3.67;3.67;;;;;18.72;71.48;100774.88;5036415;28;45481;-71
2022/06/07 05:38:21;;;;;;;;;4.00;3.33;;;;;18.71;71.69;100777.53;5036507;28;45415;-71
2022/06/07 05:40:47;;;;;;;;;4.00;4.00;;;;;18.70;71.93;100776.63;5036641;28;45323;-71
2022/06/07 05:43:13;;;;;;;;;4.00;3.33;;;;;18.66;72.69;100780.16;5036647;28;45946;-71
2022/06/07 05:45:39;;;;;;;;;6.00;6.00;;;;;18.63;72.08;100778.38;5036392;28;45340;-73
2022/06/07 05:48:06;;;;;;;;;3.33;3.33;;;;;18.64;72.81;100781.91;5037111;28;45222;-71
2022/06/07 05:50:33;;;;;;;;;4.00;3.00;;;;;18.65;72.54;100779.28;5037249;28;45356;-71
2022/06/07 05:52:59;;;;;;;;;3.00;3.00;;;;;18.53;71.50;100760.75;5036014;28;46063;-72
2022/06/07 05:55:24;;;;;;;;;5.00;5.00;;;;;18.65;71.54;100781.91;5036204;28;45469;-71
2022/06/07 05:57:54;;;;;;;;;2.33;2.33;;;;;18.64;70.51;100774.88;5035877;28;45450;-71
2022/06/07 06:00:20;;;;;;;;;3.00;3.00;;;;;18.60;71.13;100767.81;5036404;28;45493;-72
2022/06/07 06:02:46;;;;;;;;;3.00;3.00;;;;;18.75;71.15;100790.75;5035790;28;45987;-71
2022/06/07 06:05:12;;;;;;;;;6.33;4.67;;;;;18.82;72.43;100779.31;5035863;28;45462;-71
2022/06/07 06:10:19;;;;;;;;;5.33;4.33;;;;;18.91;71.51;100788.13;5036408;28;45379;-71
2022/06/07 06:10:24;;;;;;;;;16.00;13.00;;;;;18.97;72.29;100790.78;5036694;28;45486;-71
2022/06/07 06:12:50;;;;;;;;;5.00;4.00;;;;;18.97;71.56;100785.50;5035906;28;46042;-71
2022/06/07 06:15:15;;;;;;;;;4.67;4.33;;;;;19.05;71.29;100791.66;5035794;28;45509;-71
2022/06/07 06:17:41;;;;;;;;;6.33;6.00;;;;;19.13;70.31;100794.28;5037591;28;45269;-72
2022/06/07 06:20:09;;;;;;;;;4.67;4.00;;;;;19.12;70.46;100788.13;5039820;28;45459;-71
2022/06/07 06:22:35;;;;;;;;;5.33;3.67;;;;;19.13;70.92;100789.00;5039467;28;45451;-71
2022/06/07 06:25:01;;;;;;;;;6.00;5.00;;;;;19.18;70.60;100801.34;5039121;28;45340;-71
2022/06/07 06:27:26;;;;;;;;;5.33;5.33;;;;;19.19;70.74;100800.47;5039147;28;45333;-71
2022/06/07 06:29:52;;;;;;;;;5.00;5.00;;;;;19.20;71.20;100794.28;5056865;28;45371;-71
2022/06/07 06:32:18;;;;;;;;;5.00;4.67;;;;;19.28;70.62;100802.22;5058360;28;45403;-71
2022/06/07 06:34:44;;;;;;;;;3.67;3.33;;;;;19.17;70.12;100781.03;5058305;28;45402;-71
2022/06/07 06:37:09;;;;;;;;;6.67;4.33;;;;;19.39;69.95;100810.13;5058771;28;45520;-71
2022/06/07 06:39:35;;;;;;;;;6.00;4.33;;;;;19.36;69.48;100802.19;5059124;28;45440;-71
2022/06/07 06:42:00;;;;;;;;;3.67;3.00;;;;;19.41;69.50;100796.00;5058157;28;46036;-71
2022/06/07 06:44:26;;;;;;;;;4.67;4.67;;;;;19.58;68.99;100808.34;5058594;28;45343;-71
2022/06/07 06:46:52;;;;;;;;;4.00;4.00;;;;;19.66;69.52;100815.38;5058411;28;45474;-71
2022/06/07 06:49:18;;;;;;;;;5.00;5.00;;;;;19.74;69.54;100807.44;5058231;28;45652;-71
2022/06/07 06:51:46;;;;;;;;;6.00;5.00;;;;;19.80;69.05;100801.22;5053510;28;46485;-73
2022/06/07 06:54:13;;;;;;;;;3.00;3.00;;;;;19.84;68.38;100813.59;5058855;28;45512;-70
2022/06/07 06:56:39;;;;;;;;;4.33;4.00;;;;;19.77;68.32;100785.31;5059790;28;45524;-71
2022/06/07 06:59:05;;;;;;;;;4.00;4.00;;;;;19.93;68.14;100807.34;5059216;28;45275;-71
2022/06/07 07:01:34;;;;;;;;;3.00;2.00;;;;;19.94;67.45;100809.13;5058656;28;45370;-71
2022/06/07 07:04:04;;;;;;;;;3.00;3.00;;;;;19.95;67.44;100806.44;5058879;28;45504;-73
2022/06/07 07:06:30;;;;;;;;;3.67;2.67;;;;;19.98;68.03;100806.44;5058859;28;45369;-71
2022/06/07 07:08:56;;;;;;;;;3.67;3.67;;;;;19.89;67.29;100787.91;5059119;28;45426;-72
2022/06/07 07:11:35;;;;;;;;;4.00;4.00;;;;;20.02;67.41;100808.19;5058614;28;46155;-72
2022/06/07 07:14:01;;;;;;;;;4.00;4.00;;;;;20.05;67.20;100813.50;5058730;28;45411;-72
2022/06/07 07:16:30;;;;;;;;;7.00;6.00;;;;;20.09;67.18;100816.13;5058811;28;45588;-71
2022/06/07 07:18:56;;;;;;;;;7.00;7.00;;;;;20.11;67.71;100814.34;5058877;28;45311;-72
2022/06/07 07:21:24;;;;;;;;;5.00;4.00;;;;;20.13;67.47;100809.91;5058149;28;45368;-71
2022/06/07 07:23:50;;;;;;;;;5.33;4.00;;;;;19.99;67.46;100789.63;5058266;28;45468;-74
2022/06/07 07:26:26;;;;;;;;;5.00;4.33;;;;;20.17;66.96;100806.34;5058378;28;45692;-71
2022/06/07 07:28:52;;;;;;;;;6.00;5.00;;;;;20.23;66.83;100811.63;5053041;28;45717;-72
2022/06/07 07:31:26;;;;;;;;;4.33;4.33;;;;;20.03;66.79;100777.25;5055481;28;46190;-72
2022/06/07 07:33:53;;;;;;;;;6.00;5.00;;;;;20.26;66.49;100815.13;5042027;28;45574;-73
2022/06/07 07:36:19;;;;;;;;;7.00;6.33;;;;;20.25;66.17;100810.75;5047689;28;45437;-71
2022/06/07 07:38:45;;;;;;;;;5.67;5.00;;;;;20.24;66.03;100811.63;5016598;27;45373;-71
2022/06/07 07:41:18;;;;;;;;;4.00;4.00;;;;;20.21;66.12;100811.66;5046197;28;46197;-71
2022/06/07 07:43:45;;;;;;;;;4.00;3.00;;;;;20.22;65.81;100812.53;5047764;28;46638;-72
2022/06/07 07:46:12;;;;;;;;;10.33;7.33;;;;;20.23;66.84;100817.81;5047486;28;45542;-71
2022/06/07 07:48:38;;;;;;;;;5.33;5.00;;;;;20.25;65.98;100816.03;5045660;28;45588;-71
2022/06/07 07:51:06;;;;;;;;;4.00;4.00;;;;;20.30;66.13;100820.44;5046595;28;46667;-71
2022/06/07 07:53:32;;;;;;;;;6.00;5.00;;;;;20.33;66.23;100825.72;5048277;28;45809;-71
2022/06/07 07:55:58;;;;;;;;;6.00;5.00;;;;;20.36;66.46;100818.63;5047842;28;45593;-70
2022/06/07 07:58:24;;;;;;;;;10.00;8.33;;;;;20.40;66.00;100815.06;5046816;28;45398;-71
2022/06/07 08:00:50;;;;;;;;;6.00;5.33;;;;;20.44;65.63;100822.09;5046108;28;45516;-70
2022/06/07 08:03:18;;;;;;;;;8.33;7.00;;;;;20.48;66.35;100832.72;5044767;28;45407;-70
2022/06/07 08:05:45;;;;;;;;;9.00;6.33;;;;;20.50;65.77;100833.59;5046458;28;45446;-70
2022/06/07 08:08:11;;;;;;;;;7.67;5.00;;;;;20.54;66.35;100832.69;5047041;28;45344;-71
2022/06/07 08:10:38;;;;;;;;;6.00;5.33;;;;;20.60;66.54;100830.00;5044597;28;45408;-70
2022/06/07 08:13:05;;;;;;;;;6.00;5.33;;;;;20.54;65.88;100814.97;5046216;28;45451;-71
2022/06/07 08:15:33;;;;;;;;;1.33;1.33;;;;;20.69;64.58;100829.97;5046513;28;45923;-69
2022/06/07 08:18:02;;;;;;;;;4.67;4.00;;;;;20.70;65.65;100831.72;5044861;28;45413;-70
2022/06/07 08:20:32;;;;;;;;;3.00;2.00;;;;;20.70;64.12;100839.66;5045440;28;45500;-70
2022/06/07 08:22:57;;;;;;;;;4.00;3.33;;;;;20.72;64.31;100840.53;5046180;28;45473;-69
2022/06/07 08:25:23;;;;;;;;;4.00;3.00;;;;;20.72;64.77;100829.91;5044858;28;45509;-74
2022/06/07 08:27:49;;;;;;;;;3.67;2.00;;;;;20.77;63.98;100838.75;5048264;28;45384;-74
2022/06/07 08:30:15;;;;;;;;;3.00;2.33;;;;;20.82;64.33;100841.34;5057359;28;46334;-73
2022/06/07 08:32:41;;;;;;;;;3.00;3.00;;;;;20.86;64.72;100843.09;5056860;28;45542;-74
2022/06/07 08:37:56;;;;;;;;;2.67;2.67;;;;;20.94;62.81;100846.56;5057607;28;45441;-74
2022/06/07 08:40:33;;;;;;;;;4.33;3.00;;;;;20.93;63.12;100833.28;5055712;28;45990;-75
2022/06/07 08:43:01;;;;;;;;;5.33;4.00;;;;;20.98;63.42;100852.75;5056722;28;45445;-74
2022/06/07 08:45:37;;;;;;;;;6.50;4.50;;;;;21.04;63.30;100848.25;5057132;28;45534;-72
2022/06/07 08:48:12;;;;;;;;;6.67;6.67;;;;;21.13;63.05;100844.66;5056577;28;45353;-74
2022/06/07 08:50:46;;;;;;;;;6.00;6.00;;;;;21.20;62.66;100838.38;5056960;28;45232;-75
2022/06/07 08:53:11;;;;;;;;;7.00;5.67;;;;;21.25;61.77;100833.91;5056818;28;45482;-73
2022/06/07 08:55:47;;;;;;;;;6.33;5.67;;;;;21.08;62.22;100811.03;5056756;28;45541;-73
2022/06/07 08:58:15;;;;;;;;;6.00;5.67;;;;;21.22;62.29;100825.94;5057574;28;45477;-74
2022/06/07 09:00:45;;;;;;;;;6.00;6.00;;;;;21.20;62.32;100827.75;5056942;28;45396;-74
2022/06/07 09:03:27;;;;;;;;;4.00;4.00;;;;;21.18;62.98;100829.53;5057013;28;45406;-74
2022/06/07 09:05:59;;;;;;;;;9.33;5.33;;;;;21.20;62.45;100825.09;5056900;28;45635;-74
2022/06/07 09:08:42;;;;;;;;;7.00;5.00;;;;;21.29;63.14;100820.56;5056777;28;45369;-75
2022/06/07 09:14:04;;;;;;;;;4.00;3.00;;;;;21.31;62.35;100826.75;5056663;28;45323;-74
2022/06/07 09:16:37;;;;;;;;;5.00;4.00;;;;;21.23;62.98;100833.03;5056795;28;45387;-74
2022/06/07 09:19:09;;;;;;;;;5.00;5.00;;;;;21.21;64.08;100832.19;5056707;28;45389;-74
2022/06/07 09:21:40;;;;;;;;;7.67;7.67;;;;;21.22;64.18;100841.88;5056005;28;45569;-75
2022/06/07 09:24:22;;;;;;;;;8.00;8.00;;;;;21.25;63.74;100833.03;5056095;28;45414;-75
2022/06/07 09:26:48;;;;;;;;;8.00;7.00;;;;;21.23;62.96;100822.41;5056521;28;45543;-74
2022/06/07 09:29:22;;;;;;;;;4.00;4.00;;;;;21.38;62.75;100824.03;5056983;28;45306;-74
2022/06/07 09:31:50;;;;;;;;;5.00;3.00;;;;;21.40;62.77;100810.72;5056221;28;45469;-74
2022/06/07 09:34:28;;;;;;;;;5.00;4.33;;;;;21.44;62.85;100793.88;5056666;28;45414;-73
2022/06/07 09:37:04;;;;;;;;;5.00;5.00;;;;;21.72;61.98;100815.72;5056609;28;45521;-73
2022/06/07 09:39:36;;;;;;;;;5.00;5.00;;;;;21.87;62.40;100816.44;5056552;28;45387;-74
2022/06/07 09:42:07;;;;;;;;;5.33;4.67;;;;;22.13;61.89;100819.66;5056078;28;46127;-73
2022/06/07 09:44:51;;;;;;;;;3.33;3.33;;;;;22.24;60.93;100824.84;5056267;28;45359;-75
2022/06/07 09:47:21;;;;;;;;;4.33;4.00;;;;;22.38;60.36;100814.00;5056584;28;45363;-74
2022/06/07 09:49:57;;;;;;;;;3.00;3.00;;;;;22.53;58.29;100805.78;5056635;28;45251;-74
2022/06/07 09:52:36;;;;;;;;;5.00;5.00;;;;;22.76;58.09;100801.88;5059070;28;46410;-72
2022/06/07 09:55:21;;;;;;;;;4.00;4.00;;;;;23.01;57.14;100797.03;5059691;28;45557;-74
2022/06/07 09:58:24;;;;;;;;;3.33;3.00;;;;;23.22;54.85;100791.34;5058658;28;45268;-73
2022/06/07 10:01:00;;;;;;;;;2.00;2.00;;;;;23.40;54.34;100795.47;5059970;28;45409;-74
2022/06/07 10:03:41;;;;;;;;;5.00;4.00;;;;;23.61;55.08;100795.94;5059590;28;45500;-73
2022/06/07 10:06:16;;;;;;;;;3.33;3.00;;;;;24.10;53.73;100791.41;5059210;28;45318;-74
2022/06/07 10:08:48;;;;;;;;;2.33;2.33;;;;;24.56;52.67;100798.41;5059631;28;45445;-74
2022/06/07 10:11:39;;;;;;;;;7.00;6.00;;;;;24.98;52.35;100798.25;5059929;28;46222;-70
2022/06/07 10:14:14;;;;;;;;;4.00;2.33;;;;;25.54;50.54;100797.66;5059280;28;46116;-70
2022/06/07 10:17:00;;;;;;;;;3.33;3.00;;;;;26.20;48.53;100793.06;5059619;28;45725;-71
2022/06/07 10:19:47;;;;;;;;;4.00;3.00;;;;;26.87;48.72;100786.50;5059341;28;45496;-72
2022/06/07 10:22:21;;;;;;;;;2.00;2.00;;;;;27.15;48.09;100781.06;5059440;28;45295;-71
2022/06/07 10:25:15;;;;;;;;;3.00;3.00;;;;;27.27;47.37;100779.78;5059135;28;46162;-71
2022/06/07 10:27:51;;;;;;;;;3.67;3.33;;;;;27.09;48.09;100787.50;5059390;28;45323;-71
2022/06/07 10:30:19;;;;;;;;;2.00;2.00;;;;;26.87;47.96;100775.78;5059417;28;45259;-71
2022/06/07 10:32:54;;;;;;;;;3.00;3.00;;;;;26.81;47.81;100784.88;5059377;28;45334;-71
2022/06/07 10:35:55;;;;;;;;;3.00;3.00;;;;;26.69;48.44;100788.00;5058990;28;45365;-71
2022/06/07 10:38:58;;;;;;;;;4.00;2.00;;;;;26.54;48.87;100781.28;5058959;28;45440;-71
2022/06/07 10:41:49;;;;;;;;;6.67;4.00;;;;;26.39;50.19;100783.53;5058960;28;45484;-71
2022/06/07 10:44:37;;;;;;;;;2.00;2.00;;;;;26.35;51.38;100787.25;5059029;28;45446;-71
2022/06/07 10:47:13;;;;;;;;;3.00;3.00;;;;;26.41;50.68;100798.69;5058768;28;46145;-72
2022/06/07 10:50:01;;;;;;;;;3.00;3.00;;;;;26.55;49.92;100793.75;5058568;28;45280;-71
2022/06/07 10:52:45;;;;;;;;;2.33;2.00;;;;;26.76;49.34;100787.75;5058828;28;45370;-71
2022/06/07 10:55:34;;;;;;;;;2.00;2.00;;;;;27.14;49.16;100785.53;5058941;28;45223;-71
2022/06/07 10:58:16;;;;;;;;;1.33;1.33;;;;;27.43;49.17;100786.34;5058696;28;45408;-71
2022/06/07 11:00:49;;;;;;;;;2.00;2.00;;;;;27.57;48.50;100780.47;5058423;28;45608;-73
2022/06/07 11:03:24;;;;;;;;;2.67;2.67;;;;;27.63;48.38;100784.72;5057532;28;45249;-71
2022/06/07 11:11:43;;;;;;;;;2.00;2.00;;;;;27.63;48.21;100768.63;5058349;28;45320;-71
2022/06/07 11:14:41;;;;;;;;;2.00;2.00;;;;;27.62;48.53;100761.53;5058561;28;45311;-71
2022/06/07 11:17:24;;;;;;;;;3.33;3.00;;;;;27.71;48.37;100750.41;5058788;28;45497;-71
2022/06/07 11:19:52;;;;;;;;;2.33;2.33;;;;;27.95;45.87;100767.41;5058719;28;45548;-71
2022/06/07 11:22:21;;;;;;;;;3.67;3.67;;;;;28.12;46.89;100754.22;5058340;28;45335;-71
2022/06/07 11:25:18;;;;;;;;;4.00;3.00;;;;;28.50;46.86;100756.28;5058700;28;45220;-72
2022/06/07 11:27:53;;;;;;;;;4.00;3.00;;;;;28.63;44.55;100757.56;5058929;28;45960;-71
2022/06/07 11:30:28;;;;;;;;;5.00;5.00;;;;;28.72;45.08;100754.47;5058563;28;45305;-71
2022/06/07 11:32:59;;;;;;;;;3.00;3.00;;;;;28.86;44.53;100750.34;5058552;28;45911;-72
2022/06/07 11:35:53;;;;;;;;;2.33;2.33;;;;;28.65;44.42;100753.00;5058434;28;45194;-72
2022/06/07 11:38:21;;;;;;;;;2.00;2.00;;;;;28.80;43.99;100742.53;5058680;28;45458;-72
2022/06/07 11:40:48;;;;;;;;;1.00;1.00;;;;;28.87;43.36;100735.94;5058108;28;46153;-72
2022/06/07 11:43:51;;;;;;;;;1.33;1.00;;;;;29.18;42.90;100734.63;5058462;28;45208;-72
2022/06/07 11:46:48;;;;;;;;;2.00;1.67;;;;;29.59;42.69;100726.50;5058210;28;45184;-71
2022/06/07 11:49:20;;;;;;;;;4.00;4.00;;;;;29.82;42.14;100723.63;5054610;28;45495;-72
2022/06/07 11:52:13;;;;;;;;;3.33;3.00;;;;;29.86;42.39;100719.81;5057849;28;45520;-72
2022/06/07 11:54:51;;;;;;;;;2.33;2.00;;;;;29.70;41.32;100716.09;5058132;28;45265;-71
2022/06/07 11:57:26;;;;;;;;;2.33;2.00;;;;;29.70;42.56;100711.56;5058023;28;45265;-72